Austin, TX (78716)

11:20 AM CST on January 30, 2015 (GMT -0600)
Canyon Oaks | Change Station
CLOSE
Current Station
Personal Weather Station
Location: Austin, TX
Elevation: 771 ft
Nearby Weather Stations

Elev 771 ft 30.32 °N, 97.85 °W | Updated 8 seconds ago

Overcast
Overcast
49.8 °F
Feels Like 50 °F
N
2.9
Wind Variable Wind from NNE
Gusts 4.0 mph

Today
High -- | Low -- °F
--% Chance of Precip.
Yesterday
High -- | Low -- °F
Precip. -- in
7:23 AM 6:06 PM
Waxing Gibbous, 84% visible
Pressure 30.45 in
Visibility 10.0 miles
Clouds Few 9500 ft
Scattered Clouds 12000 ft
Windchill 50 °F
Dew Point 37 °F
Humidity 62%
Rainfall 0.00 in
Snow Depth Not available.
UV 3 out of 12
Pollen 6.40 out of 12
Air Quality Not available.
Flu Activity Not available.
METAR KATT 301651Z AUTO VRB05KT 10SM FEW095 SCT120 10/02 A3045 RMK AO2 SLP312 T01000017

More Conditions Fewer Conditions

Pressure 30.45 in
Visibility 10.0 miles
Clouds Few 9500 ft
Scattered Clouds 12000 ft
Windchill 50 °F
Dew Point 37 °F
Humidity 62%
Rainfall 0.00 in
Snow Depth Not available.
UV 3 out of 12
Pollen 6.40 out of 12
Air Quality Not available.
Flu Activity Not available.
METAR KATT 301651Z AUTO VRB05KT 10SM FEW095 SCT120 10/02 A3045 RMK AO2 SLP312 T01000017

More Conditions Fewer Conditions

10-Day Weather Forecast

Almanac

Astronomy

Jan. 30, 2015 Rise Set
Actual Time
Civil Twilight
Nautical Twilight
Astronomical Twilight
Moon
Length of Visible Light
Length of Day
Tomorrow will be .
, % of the Moon is Illuminated

Today's Extremes

State Highs State Lows

Community

WunderPhotos

Upload Photos

1,791,825 photos uploaded!

WunderBlogs® & News

Nearby

Air Quality

  Air Quality AQ Index Pollutant
Not available.

Snow Depth

Station Depth Elevation

Earthquake Activity

City Distance Mag. Time & Date
Minimum magnitude displayed is 2.5.

Coastal Water Temperatures

Place Temperature

Nearby Weather Stations